EIMG weather

CLOSED Moneygall Aerodrome
Moneygall, County Offaly, Ireland

Public forecast

Using degrees Celsius for public forecast. Weather courtesy of forecast.io.

METAR (pilot weather report)

Closest report is Shannon Airport, 35.3 nm (65.5 km) WSW. Retrieved 2019/06/19 16:30 UTC (0 seconds ago):

EINN 191630Z 26013KT 9999 SCT022 BKN040 15/09 Q1009 NOSIG

TAF (pilot weather forecast)

Closest forecast is Shannon Airport, 35.3 nm (65.5 km) WSW. Retrieved 2019/06/19 12:11 UTC (4 hours ago):

TAF EINN 191100Z 1912/2012 28010KT 9999 SCT012 BKN040 TEMPO 1912/2009 -SHRA SCT018CB